sensor_id;sensor_type;location;lat;lon;timestamp;temperature;humidity
21891;DHT22;11110;52.386;16.940;2022-11-20T00:01:58;15.70;38.60
21891;DHT22;11110;52.386;16.940;2022-11-20T00:04:26;15.70;38.70
21891;DHT22;11110;52.386;16.940;2022-11-20T00:06:55;15.70;38.70
21891;DHT22;11110;52.386;16.940;2022-11-20T00:09:23;15.70;38.70
21891;DHT22;11110;52.386;16.940;2022-11-20T00:11:53;15.70;38.70
21891;DHT22;11110;52.386;16.940;2022-11-20T00:14:21;15.70;38.60
21891;DHT22;11110;52.386;16.940;2022-11-20T00:16:49;15.70;38.70
21891;DHT22;11110;52.386;16.940;2022-11-20T00:19:17;15.70;38.80
21891;DHT22;11110;52.386;16.940;2022-11-20T00:21:46;15.70;38.80
21891;DHT22;11110;52.386;16.940;2022-11-20T00:24:18;15.70;38.90
21891;DHT22;11110;52.386;16.940;2022-11-20T00:26:46;15.70;38.90
21891;DHT22;11110;52.386;16.940;2022-11-20T00:29:16;15.70;38.80
21891;DHT22;11110;52.386;16.940;2022-11-20T00:31:44;15.70;38.80
21891;DHT22;11110;52.386;16.940;2022-11-20T00:34:12;15.70;38.80
21891;DHT22;11110;52.386;16.940;2022-11-20T00:36:41;15.70;38.80
21891;DHT22;11110;52.386;16.940;2022-11-20T00:39:09;15.70;38.60
21891;DHT22;11110;52.386;16.940;2022-11-20T00:41:37;15.70;38.40
21891;DHT22;11110;52.386;16.940;2022-11-20T00:44:05;15.70;38.50
21891;DHT22;11110;52.386;16.940;2022-11-20T00:46:35;15.70;38.50
21891;DHT22;11110;52.386;16.940;2022-11-20T00:49:03;15.60;38.60
21891;DHT22;11110;52.386;16.940;2022-11-20T00:51:32;15.70;38.50
21891;DHT22;11110;52.386;16.940;2022-11-20T00:54:00;15.70;38.40
21891;DHT22;11110;52.386;16.940;2022-11-20T00:56:29;15.80;38.50
21891;DHT22;11110;52.386;16.940;2022-11-20T00:58:59;15.60;38.60
21891;DHT22;11110;52.386;16.940;2022-11-20T01:01:28;15.70;38.70
21891;DHT22;11110;52.386;16.940;2022-11-20T01:03:59;15.60;38.70
21891;DHT22;11110;52.386;16.940;2022-11-20T01:06:29;15.60;38.80
21891;DHT22;11110;52.386;16.940;2022-11-20T01:09:00;15.70;38.70
21891;DHT22;11110;52.386;16.940;2022-11-20T01:11:31;15.70;38.80
21891;DHT22;11110;52.386;16.940;2022-11-20T01:14:00;15.60;38.90
21891;DHT22;11110;52.386;16.940;2022-11-20T01:16:30;15.70;38.90
21891;DHT22;11110;52.386;16.940;2022-11-20T01:19:02;15.70;38.90
21891;DHT22;11110;52.386;16.940;2022-11-20T01:21:32;15.80;38.90
21891;DHT22;11110;52.386;16.940;2022-11-20T01:24:02;15.70;38.90
21891;DHT22;11110;52.386;16.940;2022-11-20T01:26:33;15.70;39.00
21891;DHT22;11110;52.386;16.940;2022-11-20T01:29:02;15.70;39.00
21891;DHT22;11110;52.386;16.940;2022-11-20T01:31:32;15.70;39.10
21891;DHT22;11110;52.386;16.940;2022-11-20T01:34:04;15.70;39.10
21891;DHT22;11110;52.386;16.940;2022-11-20T01:36:35;15.60;39.10
21891;DHT22;11110;52.386;16.940;2022-11-20T01:39:05;15.60;39.20
21891;DHT22;11110;52.386;16.940;2022-11-20T01:41:34;15.60;39.30
21891;DHT22;11110;52.386;16.940;2022-11-20T01:44:22;15.60;39.50
21891;DHT22;11110;52.386;16.940;2022-11-20T01:46:56;15.60;39.50
21891;DHT22;11110;52.386;16.940;2022-11-20T01:49:31;15.60;39.60
21891;DHT22;11110;52.386;16.940;2022-11-20T01:52:14;15.60;39.70
21891;DHT22;11110;52.386;16.940;2022-11-20T01:54:48;15.60;39.80
21891;DHT22;11110;52.386;16.940;2022-11-20T01:57:20;15.60;39.80
21891;DHT22;11110;52.386;16.940;2022-11-20T01:59:54;15.60;39.80
21891;DHT22;11110;52.386;16.940;2022-11-20T02:02:25;15.50;39.90
21891;DHT22;11110;52.386;16.940;2022-11-20T02:04:57;15.40;39.90
21891;DHT22;11110;52.386;16.940;2022-11-20T02:07:28;15.50;40.10
21891;DHT22;11110;52.386;16.940;2022-11-20T02:09:57;15.40;40.10
21891;DHT22;11110;52.386;16.940;2022-11-20T02:12:25;15.50;40.10
21891;DHT22;11110;52.386;16.940;2022-11-20T02:15:11;15.50;40.30
21891;DHT22;11110;52.386;16.940;2022-11-20T02:17:39;15.40;40.20
21891;DHT22;11110;52.386;16.940;2022-11-20T02:20:09;15.50;40.30
21891;DHT22;11110;52.386;16.940;2022-11-20T02:22:41;15.50;40.40
21891;DHT22;11110;52.386;16.940;2022-11-20T02:25:15;15.60;40.40
21891;DHT22;11110;52.386;16.940;2022-11-20T02:27:43;15.50;40.50
21891;DHT22;11110;52.386;16.940;2022-11-20T02:30:11;15.40;40.50
21891;DHT22;11110;52.386;16.940;2022-11-20T02:32:40;15.40;40.50
21891;DHT22;11110;52.386;16.940;2022-11-20T02:35:09;15.40;40.70
21891;DHT22;11110;52.386;16.940;2022-11-20T02:37:39;15.40;40.70
21891;DHT22;11110;52.386;16.940;2022-11-20T02:40:08;15.40;40.80
21891;DHT22;11110;52.386;16.940;2022-11-20T02:42:38;15.30;40.80
21891;DHT22;11110;52.386;16.940;2022-11-20T02:45:07;15.40;40.80
21891;DHT22;11110;52.386;16.940;2022-11-20T02:47:36;15.40;40.90
21891;DHT22;11110;52.386;16.940;2022-11-20T02:50:05;15.40;40.80
21891;DHT22;11110;52.386;16.940;2022-11-20T02:52:33;15.50;40.70
21891;DHT22;11110;52.386;16.940;2022-11-20T02:55:02;15.30;40.70
21891;DHT22;11110;52.386;16.940;2022-11-20T02:57:31;15.40;40.60
21891;DHT22;11110;52.386;16.940;2022-11-20T03:00:00;15.40;40.80
21891;DHT22;11110;52.386;16.940;2022-11-20T03:02:29;15.30;40.80
21891;DHT22;11110;52.386;16.940;2022-11-20T03:04:57;15.40;40.80
21891;DHT22;11110;52.386;16.940;2022-11-20T03:07:26;15.40;40.90
21891;DHT22;11110;52.386;16.940;2022-11-20T03:09:54;15.40;40.90
21891;DHT22;11110;52.386;16.940;2022-11-20T03:12:22;15.40;40.90
21891;DHT22;11110;52.386;16.940;2022-11-20T03:14:50;15.40;40.80
21891;DHT22;11110;52.386;16.940;2022-11-20T03:17:21;15.30;40.80
21891;DHT22;11110;52.386;16.940;2022-11-20T03:19:49;15.40;40.80
21891;DHT22;11110;52.386;16.940;2022-11-20T03:22:17;15.30;40.80
21891;DHT22;11110;52.386;16.940;2022-11-20T03:24:45;15.40;40.70
21891;DHT22;11110;52.386;16.940;2022-11-20T03:27:14;15.40;40.70
21891;DHT22;11110;52.386;16.940;2022-11-20T03:29:42;15.40;40.70
21891;DHT22;11110;52.386;16.940;2022-11-20T03:32:10;15.30;40.70
21891;DHT22;11110;52.386;16.940;2022-11-20T03:34:39;15.40;40.70
21891;DHT22;11110;52.386;16.940;2022-11-20T03:37:08;15.30;40.70
21891;DHT22;11110;52.386;16.940;2022-11-20T03:39:36;15.30;40.70
21891;DHT22;11110;52.386;16.940;2022-11-20T03:42:04;15.30;40.70
21891;DHT22;11110;52.386;16.940;2022-11-20T03:44:53;15.40;40.80
21891;DHT22;11110;52.386;16.940;2022-11-20T03:47:21;15.30;40.70
21891;DHT22;11110;52.386;16.940;2022-11-20T03:49:50;15.40;40.80
21891;DHT22;11110;52.386;16.940;2022-11-20T03:52:18;15.40;40.70
21891;DHT22;11110;52.386;16.940;2022-11-20T03:54:46;15.40;40.70
21891;DHT22;11110;52.386;16.940;2022-11-20T03:57:15;15.40;40.70
21891;DHT22;11110;52.386;16.940;2022-11-20T03:59:43;15.50;40.70
21891;DHT22;11110;52.386;16.940;2022-11-20T04:02:11;15.40;40.70
21891;DHT22;11110;52.386;16.940;2022-11-20T04:04:39;15.40;40.70
21891;DHT22;11110;52.386;16.940;2022-11-20T04:07:09;15.40;40.70
21891;DHT22;11110;52.386;16.940;2022-11-20T04:09:37;15.40;40.70
21891;DHT22;11110;52.386;16.940;2022-11-20T04:12:06;15.40;40.70
21891;DHT22;11110;52.386;16.940;2022-11-20T04:14:34;15.40;40.70
21891;DHT22;11110;52.386;16.940;2022-11-20T04:17:03;15.40;40.80
21891;DHT22;11110;52.386;16.940;2022-11-20T04:19:31;15.40;40.70
21891;DHT22;11110;52.386;16.940;2022-11-20T04:21:59;15.50;40.80
21891;DHT22;11110;52.386;16.940;2022-11-20T04:24:29;16.70;41.90
21891;DHT22;11110;52.386;16.940;2022-11-20T04:26:57;15.50;40.70
21891;DHT22;11110;52.386;16.940;2022-11-20T04:29:25;15.50;40.70
21891;DHT22;11110;52.386;16.940;2022-11-20T04:31:53;15.50;40.80
21891;DHT22;11110;52.386;16.940;2022-11-20T04:34:21;15.50;40.70
21891;DHT22;11110;52.386;16.940;2022-11-20T04:36:50;15.50;40.70
21891;DHT22;11110;52.386;16.940;2022-11-20T04:39:18;15.50;40.70
21891;DHT22;11110;52.386;16.940;2022-11-20T04:41:48;15.50;40.70
21891;DHT22;11110;52.386;16.940;2022-11-20T04:44:36;15.50;40.80
21891;DHT22;11110;52.386;16.940;2022-11-20T04:47:04;15.50;40.70
21891;DHT22;11110;52.386;16.940;2022-11-20T04:49:32;15.50;40.70
21891;DHT22;11110;52.386;16.940;2022-11-20T04:52:01;15.50;40.70
21891;DHT22;11110;52.386;16.940;2022-11-20T04:54:29;15.50;40.60
21891;DHT22;11110;52.386;16.940;2022-11-20T04:56:59;15.50;40.60
21891;DHT22;11110;52.386;16.940;2022-11-20T04:59:27;15.50;40.60
21891;DHT22;11110;52.386;16.940;2022-11-20T05:01:56;15.50;40.60
21891;DHT22;11110;52.386;16.940;2022-11-20T05:04:24;15.50;40.60
21891;DHT22;11110;52.386;16.940;2022-11-20T05:06:52;15.50;40.60
21891;DHT22;11110;52.386;16.940;2022-11-20T05:09:21;15.60;40.70
21891;DHT22;11110;52.386;16.940;2022-11-20T05:11:49;15.60;40.60
21891;DHT22;11110;52.386;16.940;2022-11-20T05:14:19;15.60;40.60
21891;DHT22;11110;52.386;16.940;2022-11-20T05:16:48;15.60;40.50
21891;DHT22;11110;52.386;16.940;2022-11-20T05:19:16;15.60;40.60
21891;DHT22;11110;52.386;16.940;2022-11-20T05:21:44;15.60;40.70
21891;DHT22;11110;52.386;16.940;2022-11-20T05:24:12;15.50;40.80
21891;DHT22;11110;52.386;16.940;2022-11-20T05:26:41;15.50;40.90
21891;DHT22;11110;52.386;16.940;2022-11-20T05:29:10;15.50;41.00
21891;DHT22;11110;52.386;16.940;2022-11-20T05:31:40;15.50;41.10
21891;DHT22;11110;52.386;16.940;2022-11-20T05:34:08;15.60;41.00
21891;DHT22;11110;52.386;16.940;2022-11-20T05:36:37;15.60;41.00
21891;DHT22;11110;52.386;16.940;2022-11-20T05:39:05;15.50;41.00
21891;DHT22;11110;52.386;16.940;2022-11-20T05:41:33;15.50;41.60
21891;DHT22;11110;52.386;16.940;2022-11-20T05:44:01;15.50;41.00
21891;DHT22;11110;52.386;16.940;2022-11-20T05:46:30;15.50;41.10
21891;DHT22;11110;52.386;16.940;2022-11-20T05:48:59;15.50;41.10
21891;DHT22;11110;52.386;16.940;2022-11-20T05:51:28;15.40;41.00
21891;DHT22;11110;52.386;16.940;2022-11-20T05:53:56;15.50;41.20
21891;DHT22;11110;52.386;16.940;2022-11-20T05:56:25;15.50;41.00
21891;DHT22;11110;52.386;16.940;2022-11-20T05:58:53;15.50;40.90
21891;DHT22;11110;52.386;16.940;2022-11-20T06:01:23;15.50;40.80
21891;DHT22;11110;52.386;16.940;2022-11-20T06:03:53;15.50;40.90
21891;DHT22;11110;52.386;16.940;2022-11-20T06:06:23;15.40;40.80
21891;DHT22;11110;52.386;16.940;2022-11-20T06:08:52;15.40;40.90
21891;DHT22;11110;52.386;16.940;2022-11-20T06:11:20;15.40;41.00
21891;DHT22;11110;52.386;16.940;2022-11-20T06:13:49;15.40;41.00
21891;DHT22;11110;52.386;16.940;2022-11-20T06:16:19;15.40;41.00
21891;DHT22;11110;52.386;16.940;2022-11-20T06:18:49;15.30;41.10
21891;DHT22;11110;52.386;16.940;2022-11-20T06:21:18;15.40;41.10
21891;DHT22;11110;52.386;16.940;2022-11-20T06:23:49;15.30;41.10
21891;DHT22;11110;52.386;16.940;2022-11-20T06:26:19;15.30;41.10
21891;DHT22;11110;52.386;16.940;2022-11-20T06:28:48;15.30;41.10
21891;DHT22;11110;52.386;16.940;2022-11-20T06:31:19;15.30;41.20
21891;DHT22;11110;52.386;16.940;2022-11-20T06:33:48;16.10;41.50
21891;DHT22;11110;52.386;16.940;2022-11-20T06:36:18;15.40;41.20
21891;DHT22;11110;52.386;16.940;2022-11-20T06:38:48;15.40;41.80
21891;DHT22;11110;52.386;16.940;2022-11-20T06:41:18;15.30;41.10
21891;DHT22;11110;52.386;16.940;2022-11-20T06:43:46;15.40;41.10
21891;DHT22;11110;52.386;16.940;2022-11-20T06:46:16;15.40;41.00
21891;DHT22;11110;52.386;16.940;2022-11-20T06:48:45;15.30;41.00
21891;DHT22;11110;52.386;16.940;2022-11-20T06:51:14;15.30;40.90
21891;DHT22;11110;52.386;16.940;2022-11-20T06:53:42;15.30;40.80
21891;DHT22;11110;52.386;16.940;2022-11-20T06:56:12;15.30;40.70
21891;DHT22;11110;52.386;16.940;2022-11-20T06:58:40;15.30;40.50
21891;DHT22;11110;52.386;16.940;2022-11-20T07:01:11;15.40;40.40
21891;DHT22;11110;52.386;16.940;2022-11-20T07:03:41;15.30;40.20
21891;DHT22;11110;52.386;16.940;2022-11-20T07:06:10;15.40;39.90
21891;DHT22;11110;52.386;16.940;2022-11-20T07:08:38;15.40;39.70
21891;DHT22;11110;52.386;16.940;2022-11-20T07:11:07;15.30;39.60
21891;DHT22;11110;52.386;16.940;2022-11-20T07:13:37;15.40;39.60
21891;DHT22;11110;52.386;16.940;2022-11-20T07:16:07;15.40;39.40
21891;DHT22;11110;52.386;16.940;2022-11-20T07:18:35;15.40;39.20
21891;DHT22;11110;52.386;16.940;2022-11-20T07:21:05;15.20;39.00
21891;DHT22;11110;52.386;16.940;2022-11-20T07:23:34;15.40;39.00
21891;DHT22;11110;52.386;16.940;2022-11-20T07:26:03;15.40;39.00
21891;DHT22;11110;52.386;16.940;2022-11-20T07:28:32;15.30;38.90
21891;DHT22;11110;52.386;16.940;2022-11-20T07:31:02;15.40;38.90
21891;DHT22;11110;52.386;16.940;2022-11-20T07:33:31;15.40;38.80
21891;DHT22;11110;52.386;16.940;2022-11-20T07:36:00;15.40;38.70
21891;DHT22;11110;52.386;16.940;2022-11-20T07:38:28;15.40;38.70
21891;DHT22;11110;52.386;16.940;2022-11-20T07:40:57;15.40;38.60
21891;DHT22;11110;52.386;16.940;2022-11-20T07:43:28;15.40;38.60
21891;DHT22;11110;52.386;16.940;2022-11-20T07:45:57;16.70;39.20
21891;DHT22;11110;52.386;16.940;2022-11-20T07:48:27;15.40;38.60
21891;DHT22;11110;52.386;16.940;2022-11-20T07:50:55;15.40;38.50
21891;DHT22;11110;52.386;16.940;2022-11-20T07:53:24;15.40;38.50
21891;DHT22;11110;52.386;16.940;2022-11-20T07:55:52;15.40;38.40
21891;DHT22;11110;52.386;16.940;2022-11-20T07:58:21;15.50;38.20
21891;DHT22;11110;52.386;16.940;2022-11-20T08:00:49;15.50;38.10
21891;DHT22;11110;52.386;16.940;2022-11-20T08:03:18;15.50;38.20
21891;DHT22;11110;52.386;16.940;2022-11-20T08:05:52;15.50;38.00
21891;DHT22;11110;52.386;16.940;2022-11-20T08:08:20;15.40;38.10
21891;DHT22;11110;52.386;16.940;2022-11-20T08:10:50;15.50;38.10
21891;DHT22;11110;52.386;16.940;2022-11-20T08:13:18;15.50;38.10
21891;DHT22;11110;52.386;16.940;2022-11-20T08:16:04;15.60;38.10
21891;DHT22;11110;52.386;16.940;2022-11-20T08:18:33;15.60;38.40
21891;DHT22;11110;52.386;16.940;2022-11-20T08:21:03;15.60;38.30
21891;DHT22;11110;52.386;16.940;2022-11-20T08:23:32;15.70;38.30
21891;DHT22;11110;52.386;16.940;2022-11-20T08:26:00;15.70;38.30
21891;DHT22;11110;52.386;16.940;2022-11-20T08:28:28;15.70;38.00
21891;DHT22;11110;52.386;16.940;2022-11-20T08:30:58;15.70;38.00
21891;DHT22;11110;52.386;16.940;2022-11-20T08:33:27;15.80;37.90
21891;DHT22;11110;52.386;16.940;2022-11-20T08:35:59;15.80;37.80
21891;DHT22;11110;52.386;16.940;2022-11-20T08:38:29;15.80;37.70
21891;DHT22;11110;52.386;16.940;2022-11-20T08:40:58;15.80;37.80
21891;DHT22;11110;52.386;16.940;2022-11-20T08:43:40;15.80;37.60
21891;DHT22;11110;52.386;16.940;2022-11-20T08:46:08;15.80;37.60
21891;DHT22;11110;52.386;16.940;2022-11-20T08:48:36;15.80;37.60
21891;DHT22;11110;52.386;16.940;2022-11-20T08:51:05;15.90;37.40
21891;DHT22;11110;52.386;16.940;2022-11-20T08:53:34;15.90;37.40
21891;DHT22;11110;52.386;16.940;2022-11-20T08:56:03;16.00;37.30
21891;DHT22;11110;52.386;16.940;2022-11-20T08:58:31;16.00;37.40
21891;DHT22;11110;52.386;16.940;2022-11-20T09:01:21;16.00;37.00
21891;DHT22;11110;52.386;16.940;2022-11-20T09:03:55;16.00;36.90
21891;DHT22;11110;52.386;16.940;2022-11-20T09:06:23;16.10;36.90
21891;DHT22;11110;52.386;16.940;2022-11-20T09:08:53;16.00;36.90
21891;DHT22;11110;52.386;16.940;2022-11-20T09:11:22;16.10;36.70
21891;DHT22;11110;52.386;16.940;2022-11-20T09:13:50;16.50;36.90
21891;DHT22;11110;52.386;16.940;2022-11-20T09:16:19;16.10;36.80
21891;DHT22;11110;52.386;16.940;2022-11-20T09:18:49;16.20;36.70
21891;DHT22;11110;52.386;16.940;2022-11-20T09:21:38;16.20;36.80
21891;DHT22;11110;52.386;16.940;2022-11-20T09:24:07;16.20;36.80
21891;DHT22;11110;52.386;16.940;2022-11-20T09:26:36;16.30;36.50
21891;DHT22;11110;52.386;16.940;2022-11-20T09:29:04;16.30;36.30
21891;DHT22;11110;52.386;16.940;2022-11-20T09:31:32;16.30;36.20
21891;DHT22;11110;52.386;16.940;2022-11-20T09:34:01;16.30;36.10
21891;DHT22;11110;52.386;16.940;2022-11-20T09:36:29;16.30;36.10
21891;DHT22;11110;52.386;16.940;2022-11-20T09:38:57;16.40;35.80
21891;DHT22;11110;52.386;16.940;2022-11-20T09:41:41;16.50;35.70
21891;DHT22;11110;52.386;16.940;2022-11-20T09:44:25;16.50;35.80
21891;DHT22;11110;52.386;16.940;2022-11-20T09:47:01;16.50;35.70
21891;DHT22;11110;52.386;16.940;2022-11-20T09:49:39;16.50;35.70
21891;DHT22;11110;52.386;16.940;2022-11-20T09:52:21;16.50;35.80
21891;DHT22;11110;52.386;16.940;2022-11-20T09:54:50;16.50;35.80
21891;DHT22;11110;52.386;16.940;2022-11-20T09:57:23;16.60;35.60
21891;DHT22;11110;52.386;16.940;2022-11-20T09:59:56;16.60;35.60
21891;DHT22;11110;52.386;16.940;2022-11-20T10:02:29;16.70;35.20
21891;DHT22;11110;52.386;16.940;2022-11-20T10:05:04;16.70;35.10
21891;DHT22;11110;52.386;16.940;2022-11-20T10:07:40;16.70;35.10
21891;DHT22;11110;52.386;16.940;2022-11-20T10:10:14;16.70;35.00
21891;DHT22;11110;52.386;16.940;2022-11-20T10:12:56;16.80;34.90
21891;DHT22;11110;52.386;16.940;2022-11-20T10:15:33;16.80;34.90
21891;DHT22;11110;52.386;16.940;2022-11-20T10:18:11;17.00;35.10
21891;DHT22;11110;52.386;16.940;2022-11-20T10:20:47;16.90;35.00
21891;DHT22;11110;52.386;16.940;2022-11-20T10:23:41;16.90;34.70
21891;DHT22;11110;52.386;16.940;2022-11-20T10:26:17;16.90;34.50
21891;DHT22;11110;52.386;16.940;2022-11-20T10:29:01;16.80;34.60
21891;DHT22;11110;52.386;16.940;2022-11-20T10:31:50;17.00;34.70
21891;DHT22;11110;52.386;16.940;2022-11-20T10:34:25;17.00;34.50
21891;DHT22;11110;52.386;16.940;2022-11-20T10:37:02;16.90;34.50
21891;DHT22;11110;52.386;16.940;2022-11-20T10:39:36;17.00;34.40
21891;DHT22;11110;52.386;16.940;2022-11-20T10:42:11;17.10;34.50
21891;DHT22;11110;52.386;16.940;2022-11-20T10:44:49;17.10;34.60
21891;DHT22;11110;52.386;16.940;2022-11-20T10:47:32;17.10;34.60
21891;DHT22;11110;52.386;16.940;2022-11-20T10:50:03;17.20;34.50
21891;DHT22;11110;52.386;16.940;2022-11-20T10:52:39;17.30;34.50
21891;DHT22;11110;52.386;16.940;2022-11-20T10:55:18;17.30;34.70
21891;DHT22;11110;52.386;16.940;2022-11-20T10:57:54;17.40;34.60
21891;DHT22;11110;52.386;16.940;2022-11-20T11:00:30;17.30;34.70
21891;DHT22;11110;52.386;16.940;2022-11-20T11:02:58;17.40;34.70
21891;DHT22;11110;52.386;16.940;2022-11-20T11:05:37;17.40;34.80
21891;DHT22;11110;52.386;16.940;2022-11-20T11:08:12;17.40;34.80
21891;DHT22;11110;52.386;16.940;2022-11-20T11:10:46;17.40;34.80
21891;DHT22;11110;52.386;16.940;2022-11-20T11:13:23;17.40;35.00
21891;DHT22;11110;52.386;16.940;2022-11-20T11:15:54;17.40;34.80
21891;DHT22;11110;52.386;16.940;2022-11-20T11:18:27;17.50;34.90
21891;DHT22;11110;52.386;16.940;2022-11-20T11:20:59;17.50;35.00
21891;DHT22;11110;52.386;16.940;2022-11-20T11:23:32;17.50;35.10
21891;DHT22;11110;52.386;16.940;2022-11-20T11:26:04;17.50;35.00
21891;DHT22;11110;52.386;16.940;2022-11-20T11:28:34;17.50;34.80
21891;DHT22;11110;52.386;16.940;2022-11-20T11:31:04;17.50;34.90
21891;DHT22;11110;52.386;16.940;2022-11-20T11:33:32;17.50;34.80
21891;DHT22;11110;52.386;16.940;2022-11-20T11:36:03;17.50;34.60
21891;DHT22;11110;52.386;16.940;2022-11-20T11:38:35;17.50;34.80
21891;DHT22;11110;52.386;16.940;2022-11-20T11:41:05;17.50;34.80
21891;DHT22;11110;52.386;16.940;2022-11-20T11:43:36;17.50;34.80
21891;DHT22;11110;52.386;16.940;2022-11-20T11:46:32;17.50;34.50
21891;DHT22;11110;52.386;16.940;2022-11-20T11:49:14;17.40;34.60
21891;DHT22;11110;52.386;16.940;2022-11-20T11:51:56;17.70;35.40
21891;DHT22;11110;52.386;16.940;2022-11-20T11:54:28;17.30;34.60
21891;DHT22;11110;52.386;16.940;2022-11-20T11:57:01;17.30;34.70
21891;DHT22;11110;52.386;16.940;2022-11-20T11:59:43;17.20;35.30
21891;DHT22;11110;52.386;16.940;2022-11-20T12:02:25;17.20;34.70
21891;DHT22;11110;52.386;16.940;2022-11-20T12:04:59;17.20;34.70
21891;DHT22;11110;52.386;16.940;2022-11-20T12:07:39;17.30;34.70
21891;DHT22;11110;52.386;16.940;2022-11-20T12:10:21;17.20;34.70
21891;DHT22;11110;52.386;16.940;2022-11-20T12:12:56;17.20;34.80
21891;DHT22;11110;52.386;16.940;2022-11-20T12:15:31;17.10;34.80
21891;DHT22;11110;52.386;16.940;2022-11-20T12:18:01;17.20;34.90
21891;DHT22;11110;52.386;16.940;2022-11-20T12:20:37;17.20;34.90
21891;DHT22;11110;52.386;16.940;2022-11-20T12:23:15;17.20;34.90
21891;DHT22;11110;52.386;16.940;2022-11-20T12:25:48;17.20;35.00
21891;DHT22;11110;52.386;16.940;2022-11-20T12:28:39;17.20;35.20
21891;DHT22;11110;52.386;16.940;2022-11-20T12:31:25;17.20;35.30
21891;DHT22;11110;52.386;16.940;2022-11-20T12:34:20;17.20;35.20
21891;DHT22;11110;52.386;16.940;2022-11-20T12:36:55;17.20;35.20
21891;DHT22;11110;52.386;16.940;2022-11-20T12:39:33;17.20;35.20
21891;DHT22;11110;52.386;16.940;2022-11-20T12:42:23;17.20;35.10
21891;DHT22;11110;52.386;16.940;2022-11-20T12:48:25;17.30;34.80
21891;DHT22;11110;52.386;16.940;2022-11-20T12:51:15;17.20;34.70
21891;DHT22;11110;52.386;16.940;2022-11-20T12:53:54;17.20;34.70
21891;DHT22;11110;52.386;16.940;2022-11-20T12:56:31;17.20;34.70
21891;DHT22;11110;52.386;16.940;2022-11-20T12:59:12;17.20;34.60
21891;DHT22;11110;52.386;16.940;2022-11-20T13:01:46;17.20;34.50
21891;DHT22;11110;52.386;16.940;2022-11-20T13:04:32;17.20;34.60
21891;DHT22;11110;52.386;16.940;2022-11-20T13:07:11;17.20;34.60
21891;DHT22;11110;52.386;16.940;2022-11-20T13:09:42;17.20;34.60
21891;DHT22;11110;52.386;16.940;2022-11-20T13:12:15;17.20;34.60
21891;DHT22;11110;52.386;16.940;2022-11-20T13:14:47;17.20;34.70
21891;DHT22;11110;52.386;16.940;2022-11-20T13:17:22;17.20;34.80
21891;DHT22;11110;52.386;16.940;2022-11-20T13:19:54;17.20;35.00
21891;DHT22;11110;52.386;16.940;2022-11-20T13:22:28;17.20;35.30
21891;DHT22;11110;52.386;16.940;2022-11-20T13:24:57;17.20;35.60
21891;DHT22;11110;52.386;16.940;2022-11-20T13:27:25;17.20;35.50
21891;DHT22;11110;52.386;16.940;2022-11-20T13:30:10;17.20;35.50
21891;DHT22;11110;52.386;16.940;2022-11-20T13:32:48;17.30;35.60
21891;DHT22;11110;52.386;16.940;2022-11-20T13:35:29;17.30;35.70
21891;DHT22;11110;52.386;16.940;2022-11-20T13:38:06;17.30;35.90
21891;DHT22;11110;52.386;16.940;2022-11-20T13:40:37;18.40;36.60
21891;DHT22;11110;52.386;16.940;2022-11-20T13:43:20;17.30;36.00
21891;DHT22;11110;52.386;16.940;2022-11-20T13:45:58;18.30;36.50
21891;DHT22;11110;52.386;16.940;2022-11-20T13:48:31;17.30;35.70
21891;DHT22;11110;52.386;16.940;2022-11-20T13:51:06;17.30;35.60
21891;DHT22;11110;52.386;16.940;2022-11-20T13:54:07;17.40;36.30
21891;DHT22;11110;52.386;16.940;2022-11-20T13:56:53;17.30;35.50
21891;DHT22;11110;52.386;16.940;2022-11-20T13:59:44;17.40;35.50
21891;DHT22;11110;52.386;16.940;2022-11-20T14:02:19;17.30;35.50
21891;DHT22;11110;52.386;16.940;2022-11-20T14:04:53;17.30;35.50
21891;DHT22;11110;52.386;16.940;2022-11-20T14:07:25;17.30;35.50
21891;DHT22;11110;52.386;16.940;2022-11-20T14:09:57;17.30;35.50
21891;DHT22;11110;52.386;16.940;2022-11-20T14:12:29;17.20;35.50
21891;DHT22;11110;52.386;16.940;2022-11-20T14:14:58;17.20;35.60
21891;DHT22;11110;52.386;16.940;2022-11-20T14:17:31;17.20;35.60
21891;DHT22;11110;52.386;16.940;2022-11-20T14:20:04;17.20;35.90
21891;DHT22;11110;52.386;16.940;2022-11-20T14:22:34;17.10;35.90
21891;DHT22;11110;52.386;16.940;2022-11-20T14:25:17;17.20;36.10
21891;DHT22;11110;52.386;16.940;2022-11-20T14:27:51;17.20;36.10
21891;DHT22;11110;52.386;16.940;2022-11-20T14:30:22;17.10;36.10
21891;DHT22;11110;52.386;16.940;2022-11-20T14:32:54;17.20;36.20
21891;DHT22;11110;52.386;16.940;2022-11-20T14:35:26;17.10;36.00
21891;DHT22;11110;52.386;16.940;2022-11-20T14:37:55;17.20;36.20
21891;DHT22;11110;52.386;16.940;2022-11-20T14:40:28;17.10;36.00
21891;DHT22;11110;52.386;16.940;2022-11-20T14:42:58;17.10;36.10
21891;DHT22;11110;52.386;16.940;2022-11-20T14:45:29;17.10;36.10
21891;DHT22;11110;52.386;16.940;2022-11-20T14:48:00;17.10;36.10
21891;DHT22;11110;52.386;16.940;2022-11-20T14:50:39;17.10;36.30
21891;DHT22;11110;52.386;16.940;2022-11-20T14:53:08;17.10;36.40
21891;DHT22;11110;52.386;16.940;2022-11-20T14:55:41;17.10;36.50
21891;DHT22;11110;52.386;16.940;2022-11-20T14:58:22;17.10;36.50
21891;DHT22;11110;52.386;16.940;2022-11-20T15:00:53;17.10;36.30
21891;DHT22;11110;52.386;16.940;2022-11-20T15:03:22;17.10;36.30
21891;DHT22;11110;52.386;16.940;2022-11-20T15:05:57;17.10;36.20
21891;DHT22;11110;52.386;16.940;2022-11-20T15:08:26;17.10;36.20
21891;DHT22;11110;52.386;16.940;2022-11-20T15:10:56;17.10;36.40
21891;DHT22;11110;52.386;16.940;2022-11-20T15:13:26;17.10;36.60
21891;DHT22;11110;52.386;16.940;2022-11-20T15:15:58;17.10;36.60
21891;DHT22;11110;52.386;16.940;2022-11-20T15:18:28;17.10;36.70
21891;DHT22;11110;52.386;16.940;2022-11-20T15:21:00;17.10;36.70
21891;DHT22;11110;52.386;16.940;2022-11-20T15:23:29;17.30;36.60
21891;DHT22;11110;52.386;16.940;2022-11-20T15:25:59;17.10;36.30
21891;DHT22;11110;52.386;16.940;2022-11-20T15:28:30;17.10;36.40
21891;DHT22;11110;52.386;16.940;2022-11-20T15:31:00;17.00;36.20
21891;DHT22;11110;52.386;16.940;2022-11-20T15:33:29;17.10;36.30
21891;DHT22;11110;52.386;16.940;2022-11-20T15:35:59;17.10;36.10
21891;DHT22;11110;52.386;16.940;2022-11-20T15:38:27;17.00;36.00
21891;DHT22;11110;52.386;16.940;2022-11-20T15:40:56;17.00;36.00
21891;DHT22;11110;52.386;16.940;2022-11-20T15:43:26;17.00;36.00
21891;DHT22;11110;52.386;16.940;2022-11-20T15:45:56;17.00;36.00
21891;DHT22;11110;52.386;16.940;2022-11-20T15:48:28;17.00;36.70